Check out our new PWSWeather beta!
PWSweather.com
Personal Weather Stations
Station Observations
RW002
Arlington, VA 22207

Arlington, VA 22207

Lat: 38.8955, Lon: -77.1443

Elevation: 390

Station Type: Davis Vantage Pro II

jp_angelone@msn.com

High Low Average
Temperature 76.2°F24.6°C 59.3°F15.2°C 67.7°F19.8°C
Dew Point 71.3°F21.8°C 57.3°F14.1°C 65.0°F18.3°C
Winds 11.0 mph 17.7 kmh Calm Calm 3.0 mph S4.8 kmh S
Wind Gusts 21.0 mph33.8 kmh -- 11.0 mph17.7 kmh
Humidity 93% 82% 91%
Pressure 30.01 in1016.3 mb 29.50 in999.0 mb -
Precipitation 0.22 in5.6 mm - -
Hour Temp Dew Point Humidity Winds Wind Gusts Pressure Precip Precip Rate Daily Precip Total
12:02 AM 59.3°F15.2°C 57.3°F14.1°C 93% Calm Calm -- 30.01 in1016.3 mb 0.00 in0.0 mm 0.00 in0.0 mm 0.01 in0.3 mm
12:07 AM 59.3°F15.2°C 57.3°F14.1°C 93% 2.0 mph S3.2 kmh S 3.0 mph4.8 kmh 30.00 in1015.9 mb 0.00 in0.0 mm 0.00 in0.0 mm 0.01 in0.3 mm
12:12 AM 59.4°F15.2°C 57.4°F14.1°C 93% Calm Calm -- 30.00 in1015.9 mb 0.00 in0.0 mm 0.00 in0.0 mm 0.01 in0.3 mm
12:17 AM 59.4°F15.2°C 57.4°F14.1°C 93% Calm Calm -- 30.00 in1015.9 mb 0.00 in0.0 mm 0.00 in0.0 mm 0.01 in0.3 mm
12:22 AM 59.5°F15.3°C 57.5°F14.2°C 93% Calm Calm -- 30.00 in1015.9 mb 0.00 in0.0 mm 0.00 in0.0 mm 0.01 in0.3 mm
12:27 AM 59.5°F15.3°C 57.5°F14.2°C 93% Calm Calm 2.0 mph3.2 kmh 29.99 in1015.6 mb 0.00 in0.0 mm 0.00 in0.0 mm 0.01 in0.3 mm
12:32 AM 59.5°F15.3°C 57.5°F14.2°C 93% Calm Calm 2.0 mph3.2 kmh 29.99 in1015.6 mb 0.00 in0.0 mm 0.00 in0.0 mm 0.01 in0.3 mm
12:37 AM 59.5°F15.3°C 57.5°F14.2°C 93% Calm Calm -- 29.99 in1015.6 mb 0.00 in0.0 mm 0.00 in0.0 mm 0.01 in0.3 mm
12:42 AM 59.5°F15.3°C 57.5°F14.2°C 93% Calm Calm -- 29.99 in1015.6 mb 0.00 in0.0 mm 0.00 in0.0 mm 0.01 in0.3 mm
12:47 AM 59.5°F15.3°C 57.5°F14.2°C 93% Calm Calm -- 29.99 in1015.6 mb 0.00 in0.0 mm 0.00 in0.0 mm 0.01 in0.3 mm
12:52 AM 59.6°F15.3°C 57.6°F14.2°C 93% Calm Calm 1.0 mph1.6 kmh 29.99 in1015.6 mb 0.00 in0.0 mm 0.00 in0.0 mm 0.02 in0.5 mm
12:57 AM 59.6°F15.3°C 57.6°F14.2°C 93% Calm Calm -- 29.99 in1015.6 mb 0.24 in6.1 mm 2.88 in73.2 mm 0.03 in0.8 mm
01:02 AM 59.6°F15.3°C 57.6°F14.2°C 93% Calm Calm -- 29.99 in1015.6 mb 0.38 in9.7 mm 0.15 in3.8 mm 0.05 in1.3 mm
01:07 AM 59.7°F15.4°C 57.7°F14.3°C 93% Calm Calm 2.0 mph3.2 kmh 29.98 in1015.2 mb 0.19 in4.8 mm 0.00 in0.0 mm 0.07 in1.8 mm
01:12 AM 59.7°F15.4°C 57.7°F14.3°C 93% Calm Calm -- 29.98 in1015.2 mb 0.16 in4.1 mm 0.00 in0.0 mm 0.09 in2.3 mm
01:17 AM 59.7°F15.4°C 57.7°F14.3°C 93% Calm Calm 1.0 mph1.6 kmh 29.98 in1015.2 mb 0.07 in1.8 mm 0.00 in0.0 mm 0.09 in2.3 mm
01:22 AM 59.7°F15.4°C 57.7°F14.3°C 93% Calm Calm 3.0 mph4.8 kmh 29.98 in1015.2 mb 0.05 in1.3 mm 0.00 in0.0 mm 0.09 in2.3 mm
01:27 AM 59.7°F15.4°C 57.7°F14.3°C 93% Calm Calm -- 29.97 in1014.9 mb 0.00 in0.0 mm 0.00 in0.0 mm 0.09 in2.3 mm
01:32 AM 59.8°F15.4°C 57.8°F14.3°C 93% 1.0 mph S1.6 kmh S 1.0 mph1.6 kmh 29.97 in1014.9 mb 0.00 in0.0 mm 0.00 in0.0 mm 0.09 in2.3 mm
01:37 AM 59.8°F15.4°C 57.8°F14.3°C 93% Calm Calm -- 29.96 in1014.6 mb 0.00 in0.0 mm 0.00 in0.0 mm 0.09 in2.3 mm
01:42 AM 59.8°F15.4°C 57.8°F14.3°C 93% Calm Calm 1.0 mph1.6 kmh 29.96 in1014.6 mb 0.00 in0.0 mm 0.00 in0.0 mm 0.09 in2.3 mm
01:47 AM 59.8°F15.4°C 57.8°F14.3°C 93% Calm Calm -- 29.96 in1014.6 mb 0.00 in0.0 mm 0.00 in0.0 mm 0.09 in2.3 mm
01:52 AM 59.9°F15.5°C 57.9°F14.4°C 93% Calm Calm 4.0 mph6.4 kmh 29.96 in1014.6 mb 0.00 in0.0 mm 0.00 in0.0 mm 0.09 in2.3 mm
01:57 AM 59.9°F15.5°C 57.9°F14.4°C 93% Calm Calm -- 29.96 in1014.6 mb 0.00 in0.0 mm 0.00 in0.0 mm 0.09 in2.3 mm
02:02 AM 60.0°F15.6°C 58.0°F14.4°C 93% Calm Calm 3.0 mph4.8 kmh 29.96 in1014.6 mb 0.00 in0.0 mm 0.00 in0.0 mm 0.09 in2.3 mm
02:07 AM 60.0°F15.6°C 58.0°F14.4°C 93% Calm Calm 5.0 mph8.0 kmh 29.95 in1014.2 mb 0.00 in0.0 mm 0.00 in0.0 mm 0.09 in2.3 mm
02:12 AM 60.1°F15.6°C 58.1°F14.5°C 93% 3.0 mph S4.8 kmh S 3.0 mph4.8 kmh 29.95 in1014.2 mb 0.00 in0.0 mm 0.00 in0.0 mm 0.09 in2.3 mm
02:17 AM 60.2°F15.7°C 58.2°F14.6°C 93% Calm Calm 3.0 mph4.8 kmh 29.95 in1014.2 mb 0.00 in0.0 mm 0.00 in0.0 mm 0.09 in2.3 mm
02:22 AM 60.3°F15.7°C 58.3°F14.6°C 93% Calm Calm 5.0 mph8.0 kmh 29.94 in1013.9 mb 0.00 in0.0 mm 0.00 in0.0 mm 0.09 in2.3 mm
02:27 AM 60.3°F15.7°C 58.3°F14.6°C 93% Calm Calm 3.0 mph4.8 kmh 29.94 in1013.9 mb 0.00 in0.0 mm 0.00 in0.0 mm 0.09 in2.3 mm
02:32 AM 60.4°F15.8°C 58.4°F14.7°C 93% Calm Calm 4.0 mph6.4 kmh 29.94 in1013.9 mb 0.00 in0.0 mm 0.00 in0.0 mm 0.09 in2.3 mm
02:37 AM 60.4°F15.8°C 58.4°F14.7°C 93% Calm Calm 4.0 mph6.4 kmh 29.94 in1013.9 mb 0.00 in0.0 mm 0.00 in0.0 mm 0.10 in2.5 mm
02:42 AM 60.5°F15.8°C 58.5°F14.7°C 93% Calm Calm 5.0 mph8.0 kmh 29.94 in1013.9 mb 0.06 in1.5 mm 0.72 in18.3 mm 0.10 in2.5 mm
02:47 AM 60.5°F15.8°C 58.5°F14.7°C 93% Calm Calm -- 29.93 in1013.5 mb 0.06 in1.5 mm 0.00 in0.0 mm 0.11 in2.8 mm
02:52 AM 60.6°F15.9°C 58.6°F14.8°C 93% Calm Calm 4.0 mph6.4 kmh 29.93 in1013.5 mb 0.05 in1.3 mm 0.00 in0.0 mm 0.11 in2.8 mm
02:57 AM 60.6°F15.9°C 58.6°F14.8°C 93% Calm Calm -- 29.93 in1013.5 mb 0.04 in1.0 mm 0.00 in0.0 mm 0.12 in3.0 mm
03:02 AM 60.7°F15.9°C 58.7°F14.8°C 93% Calm Calm 2.0 mph3.2 kmh 29.92 in1013.2 mb 0.04 in1.0 mm 0.00 in0.0 mm 0.12 in3.0 mm
03:07 AM 60.8°F16.0°C 58.8°F14.9°C 93% Calm Calm 5.0 mph8.0 kmh 29.92 in1013.2 mb 0.05 in1.3 mm 0.12 in3.0 mm 0.12 in3.0 mm
03:12 AM 60.9°F16.1°C 58.6°F14.8°C 92% 3.0 mph S4.8 kmh S 6.0 mph9.7 kmh 29.92 in1013.2 mb 0.05 in1.3 mm 0.00 in0.0 mm 0.13 in3.3 mm
03:17 AM 61.0°F16.1°C 59.0°F15.0°C 93% 1.0 mph S1.6 kmh S 6.0 mph9.7 kmh 29.92 in1013.2 mb 0.06 in1.5 mm 0.12 in3.0 mm 0.13 in3.3 mm
03:22 AM 61.1°F16.2°C 59.1°F15.1°C 93% Calm Calm -- 29.92 in1013.2 mb 0.06 in1.5 mm 0.00 in0.0 mm 0.14 in3.6 mm
03:27 AM 61.2°F16.2°C 59.2°F15.1°C 93% Calm Calm 5.0 mph8.0 kmh 29.91 in1012.9 mb 0.06 in1.5 mm 0.00 in0.0 mm 0.14 in3.6 mm
03:32 AM 61.4°F16.3°C 59.4°F15.2°C 93% 2.0 mph S3.2 kmh S 5.0 mph8.0 kmh 29.91 in1012.9 mb 0.11 in2.8 mm 0.60 in15.2 mm 0.15 in3.8 mm
03:37 AM 61.6°F16.4°C 59.2°F15.1°C 92% 5.0 mph S8.0 kmh S 8.0 mph12.9 kmh 29.91 in1012.9 mb 0.10 in2.5 mm 0.00 in0.0 mm 0.16 in4.1 mm
03:42 AM 61.7°F16.5°C 59.7°F15.4°C 93% Calm Calm 8.0 mph12.9 kmh 29.91 in1012.9 mb 0.05 in1.3 mm 0.00 in0.0 mm 0.16 in4.1 mm
03:47 AM 61.8°F16.6°C 59.8°F15.4°C 93% 2.0 mph S3.2 kmh S 8.0 mph12.9 kmh 29.91 in1012.9 mb 0.04 in1.0 mm 0.00 in0.0 mm 0.16 in4.1 mm
03:52 AM 61.9°F16.6°C 59.8°F15.4°C 93% 2.0 mph S3.2 kmh S 8.0 mph12.9 kmh 29.91 in1012.9 mb 0.00 in0.0 mm 0.00 in0.0 mm 0.16 in4.1 mm
03:57 AM 62.0°F16.7°C 59.9°F15.5°C 93% 5.0 mph S8.0 kmh S 7.0 mph11.3 kmh 29.90 in1012.5 mb 0.00 in0.0 mm 0.00 in0.0 mm 0.16 in4.1 mm
04:02 AM 62.2°F16.8°C 60.1°F15.6°C 93% 1.0 mph S1.6 kmh S 8.0 mph12.9 kmh 29.90 in1012.5 mb 0.00 in0.0 mm 0.00 in0.0 mm 0.16 in4.1 mm
04:07 AM 62.3°F16.8°C 59.9°F15.5°C 92% 2.0 mph S3.2 kmh S 9.0 mph14.5 kmh 29.90 in1012.5 mb 0.00 in0.0 mm 0.00 in0.0 mm 0.16 in4.1 mm
04:12 AM 62.4°F16.9°C 60.3°F15.7°C 93% 3.0 mph SSW4.8 kmh SSW 9.0 mph14.5 kmh 29.90 in1012.5 mb 0.00 in0.0 mm 0.00 in0.0 mm 0.16 in4.1 mm
04:17 AM 62.6°F17.0°C 60.5°F15.8°C 93% Calm Calm 5.0 mph8.0 kmh 29.90 in1012.5 mb 0.00 in0.0 mm 0.00 in0.0 mm 0.16 in4.1 mm
04:22 AM 62.8°F17.1°C 60.7°F15.9°C 93% Calm Calm 9.0 mph14.5 kmh 29.90 in1012.5 mb 0.00 in0.0 mm 0.00 in0.0 mm 0.16 in4.1 mm
04:27 AM 62.9°F17.2°C 60.5°F15.8°C 92% Calm Calm 2.0 mph3.2 kmh 29.90 in1012.5 mb 0.00 in0.0 mm 0.00 in0.0 mm 0.16 in4.1 mm
04:32 AM 63.0°F17.2°C 60.6°F15.9°C 92% Calm Calm 5.0 mph8.0 kmh 29.90 in1012.5 mb 0.00 in0.0 mm 0.00 in0.0 mm 0.16 in4.1 mm
04:37 AM 63.1°F17.3°C 61.0°F16.1°C 93% Calm Calm 6.0 mph9.7 kmh 29.90 in1012.5 mb 0.00 in0.0 mm 0.00 in0.0 mm 0.16 in4.1 mm
04:42 AM 63.2°F17.3°C 61.1°F16.2°C 93% Calm Calm 8.0 mph12.9 kmh 29.91 in1012.9 mb 0.00 in0.0 mm 0.00 in0.0 mm 0.16 in4.1 mm
04:47 AM 63.3°F17.4°C 61.2°F16.2°C 93% Calm Calm 8.0 mph12.9 kmh 29.91 in1012.9 mb 0.00 in0.0 mm 0.00 in0.0 mm 0.16 in4.1 mm
04:52 AM 63.4°F17.4°C 61.3°F16.3°C 93% 1.0 mph S1.6 kmh S 4.0 mph6.4 kmh 29.91 in1012.9 mb 0.00 in0.0 mm 0.00 in0.0 mm 0.16 in4.1 mm
04:57 AM 63.5°F17.5°C 61.4°F16.3°C 93% Calm Calm 5.0 mph8.0 kmh 29.90 in1012.5 mb 0.00 in0.0 mm 0.00 in0.0 mm 0.16 in4.1 mm
05:02 AM 63.6°F17.6°C 61.2°F16.2°C 92% 1.0 mph S1.6 kmh S 5.0 mph8.0 kmh 29.90 in1012.5 mb 0.00 in0.0 mm 0.00 in0.0 mm 0.16 in4.1 mm
05:07 AM 63.7°F17.6°C 61.3°F16.3°C 92% 3.0 mph S4.8 kmh S 9.0 mph14.5 kmh 29.90 in1012.5 mb 0.00 in0.0 mm 0.00 in0.0 mm 0.16 in4.1 mm
05:12 AM 63.8°F17.7°C 61.7°F16.5°C 93% 3.0 mph SW4.8 kmh SW 9.0 mph14.5 kmh 29.89 in1012.2 mb 0.00 in0.0 mm 0.00 in0.0 mm 0.16 in4.1 mm
05:17 AM 63.9°F17.7°C 61.8°F16.6°C 93% 1.0 mph SE1.6 kmh SE 9.0 mph14.5 kmh 29.89 in1012.2 mb 0.00 in0.0 mm 0.00 in0.0 mm 0.16 in4.1 mm
05:22 AM 64.0°F17.8°C 61.9°F16.6°C 93% 2.0 mph S3.2 kmh S 9.0 mph14.5 kmh 29.90 in1012.5 mb 0.00 in0.0 mm 0.00 in0.0 mm 0.16 in4.1 mm
05:27 AM 64.1°F17.8°C 62.0°F16.7°C 93% 4.0 mph S6.4 kmh S 8.0 mph12.9 kmh 29.89 in1012.2 mb 0.00 in0.0 mm 0.00 in0.0 mm 0.16 in4.1 mm
05:32 AM 64.2°F17.9°C 62.1°F16.7°C 93% Calm Calm 8.0 mph12.9 kmh 29.89 in1012.2 mb 0.00 in0.0 mm 0.00 in0.0 mm 0.16 in4.1 mm
05:37 AM 64.3°F17.9°C 61.9°F16.6°C 92% Calm Calm 2.0 mph3.2 kmh 29.88 in1011.9 mb 0.00 in0.0 mm 0.00 in0.0 mm 0.17 in4.3 mm
05:42 AM 64.4°F18.0°C 62.0°F16.7°C 92% Calm Calm 8.0 mph12.9 kmh 29.88 in1011.9 mb 0.14 in3.6 mm 1.68 in42.7 mm 0.18 in4.6 mm
05:47 AM 64.5°F18.1°C 62.4°F16.9°C 93% 2.0 mph S3.2 kmh S 9.0 mph14.5 kmh 29.88 in1011.9 mb 0.06 in1.5 mm 0.00 in0.0 mm 0.18 in4.6 mm
05:52 AM 64.5°F18.1°C 62.4°F16.9°C 93% 6.0 mph S9.7 kmh S 9.0 mph14.5 kmh 29.88 in1011.9 mb 0.04 in1.0 mm 0.00 in0.0 mm 0.18 in4.6 mm
05:57 AM 64.6°F18.1°C 62.5°F16.9°C 93% 2.0 mph S3.2 kmh S 5.0 mph8.0 kmh 29.88 in1011.9 mb 0.00 in0.0 mm 0.00 in0.0 mm 0.18 in4.6 mm
06:02 AM 64.7°F18.2°C 62.6°F17.0°C 93% Calm Calm 6.0 mph9.7 kmh 29.88 in1011.9 mb 0.00 in0.0 mm 0.00 in0.0 mm 0.18 in4.6 mm
06:07 AM 64.8°F18.2°C 62.7°F17.1°C 93% 4.0 mph S6.4 kmh S 8.0 mph12.9 kmh 29.88 in1011.9 mb 0.00 in0.0 mm 0.00 in0.0 mm 0.18 in4.6 mm
06:12 AM 64.9°F18.3°C 62.5°F16.9°C 92% 2.0 mph S3.2 kmh S 9.0 mph14.5 kmh 29.87 in1011.5 mb 0.00 in0.0 mm 0.00 in0.0 mm 0.18 in4.6 mm
06:17 AM 65.0°F18.3°C 62.6°F17.0°C 92% 3.0 mph S4.8 kmh S 10.0 mph16.1 kmh 29.87 in1011.5 mb 0.00 in0.0 mm 0.00 in0.0 mm 0.18 in4.6 mm
06:22 AM 65.0°F18.3°C 62.6°F17.0°C 92% Calm Calm 10.0 mph16.1 kmh 29.87 in1011.5 mb 0.00 in0.0 mm 0.00 in0.0 mm 0.18 in4.6 mm
06:27 AM 65.1°F18.4°C 63.0°F17.2°C 93% 3.0 mph S4.8 kmh S 10.0 mph16.1 kmh 29.87 in1011.5 mb 0.00 in0.0 mm 0.00 in0.0 mm 0.18 in4.6 mm
06:32 AM 65.2°F18.4°C 63.1°F17.3°C 93% 1.0 mph S1.6 kmh S 10.0 mph16.1 kmh 29.87 in1011.5 mb 0.00 in0.0 mm 0.00 in0.0 mm 0.18 in4.6 mm
06:37 AM 65.2°F18.4°C 63.1°F17.3°C 93% Calm Calm 10.0 mph16.1 kmh 29.88 in1011.9 mb 0.00 in0.0 mm 0.00 in0.0 mm 0.18 in4.6 mm
06:42 AM 65.3°F18.5°C 63.2°F17.3°C 93% 4.0 mph S6.4 kmh S 8.0 mph12.9 kmh 29.87 in1011.5 mb 0.00 in0.0 mm 0.00 in0.0 mm 0.18 in4.6 mm
06:47 AM 65.3°F18.5°C 63.2°F17.3°C 93% 1.0 mph S1.6 kmh S 11.0 mph17.7 kmh 29.87 in1011.5 mb 0.00 in0.0 mm 0.00 in0.0 mm 0.18 in4.6 mm
06:52 AM 65.4°F18.6°C 63.3°F17.4°C 93% Calm Calm 11.0 mph17.7 kmh 29.88 in1011.9 mb 0.00 in0.0 mm 0.00 in0.0 mm 0.18 in4.6 mm
06:57 AM 65.4°F18.6°C 63.3°F17.4°C 93% Calm Calm 11.0 mph17.7 kmh 29.87 in1011.5 mb 0.00 in0.0 mm 0.00 in0.0 mm 0.18 in4.6 mm
07:02 AM 65.4°F18.6°C 63.3°F17.4°C 93% 1.0 mph S1.6 kmh S 11.0 mph17.7 kmh 29.87 in1011.5 mb 0.00 in0.0 mm 0.00 in0.0 mm 0.18 in4.6 mm
07:07 AM 65.5°F18.6°C 63.4°F17.4°C 93% 5.0 mph S8.0 kmh S 9.0 mph14.5 kmh 29.87 in1011.5 mb 0.00 in0.0 mm 0.00 in0.0 mm 0.18 in4.6 mm
07:12 AM 65.6°F18.7°C 63.5°F17.5°C 93% 5.0 mph S8.0 kmh S 11.0 mph17.7 kmh 29.87 in1011.5 mb 0.00 in0.0 mm 0.00 in0.0 mm 0.18 in4.6 mm
07:17 AM 65.7°F18.7°C 63.6°F17.6°C 93% 10.0 mph S16.1 kmh S 11.0 mph17.7 kmh 29.87 in1011.5 mb 0.00 in0.0 mm 0.00 in0.0 mm 0.18 in4.6 mm
07:22 AM 65.7°F18.7°C 63.6°F17.6°C 93% 3.0 mph S4.8 kmh S 11.0 mph17.7 kmh 29.87 in1011.5 mb 0.00 in0.0 mm 0.00 in0.0 mm 0.18 in4.6 mm
07:27 AM 65.8°F18.8°C 63.7°F17.6°C 93% 3.0 mph S4.8 kmh S 11.0 mph17.7 kmh 29.87 in1011.5 mb 0.00 in0.0 mm 0.00 in0.0 mm 0.18 in4.6 mm
07:32 AM 65.8°F18.8°C 63.7°F17.6°C 93% 1.0 mph S1.6 kmh S 9.0 mph14.5 kmh 29.87 in1011.5 mb 0.00 in0.0 mm 0.00 in0.0 mm 0.18 in4.6 mm
07:37 AM 65.9°F18.8°C 63.8°F17.7°C 93% 4.0 mph S6.4 kmh S 11.0 mph17.7 kmh 29.87 in1011.5 mb 0.00 in0.0 mm 0.00 in0.0 mm 0.18 in4.6 mm
07:42 AM 66.0°F18.9°C 63.9°F17.7°C 93% Calm Calm 13.0 mph20.9 kmh 29.87 in1011.5 mb 0.00 in0.0 mm 0.00 in0.0 mm 0.18 in4.6 mm
07:47 AM 66.0°F18.9°C 63.9°F17.7°C 93% Calm Calm 13.0 mph20.9 kmh 29.87 in1011.5 mb 0.00 in0.0 mm 0.00 in0.0 mm 0.18 in4.6 mm
07:52 AM 66.2°F19.0°C 64.1°F17.8°C 93% 1.0 mph SSE1.6 kmh SSE 13.0 mph20.9 kmh 29.87 in1011.5 mb 0.00 in0.0 mm 0.00 in0.0 mm 0.18 in4.6 mm
07:57 AM 66.2°F19.0°C 63.8°F17.7°C 92% Calm Calm 13.0 mph20.9 kmh 29.87 in1011.5 mb 0.00 in0.0 mm 0.00 in0.0 mm 0.18 in4.6 mm
08:02 AM 66.3°F19.1°C 63.9°F17.7°C 92% Calm Calm 11.0 mph17.7 kmh 29.87 in1011.5 mb 0.00 in0.0 mm 0.00 in0.0 mm 0.18 in4.6 mm
08:07 AM 66.3°F19.1°C 63.9°F17.7°C 92% 2.0 mph S3.2 kmh S 11.0 mph17.7 kmh 29.87 in1011.5 mb 0.00 in0.0 mm 0.00 in0.0 mm 0.18 in4.6 mm
08:12 AM 66.4°F19.1°C 64.0°F17.8°C 92% 2.0 mph S3.2 kmh S 9.0 mph14.5 kmh 29.87 in1011.5 mb 0.00 in0.0 mm 0.00 in0.0 mm 0.18 in4.6 mm
08:17 AM 66.5°F19.2°C 64.4°F18.0°C 93% 1.0 mph S1.6 kmh S 9.0 mph14.5 kmh 29.86 in1011.2 mb 0.00 in0.0 mm 0.00 in0.0 mm 0.18 in4.6 mm
08:22 AM 66.6°F19.2°C 64.5°F18.1°C 93% 3.0 mph S4.8 kmh S 12.0 mph19.3 kmh 29.86 in1011.2 mb 0.00 in0.0 mm 0.00 in0.0 mm 0.18 in4.6 mm
08:27 AM 66.6°F19.2°C 64.5°F18.1°C 93% 4.0 mph S6.4 kmh S 13.0 mph20.9 kmh 29.85 in1010.8 mb 0.00 in0.0 mm 0.00 in0.0 mm 0.18 in4.6 mm
08:32 AM 66.7°F19.3°C 64.6°F18.1°C 93% 8.0 mph S12.9 kmh S 14.0 mph22.5 kmh 29.85 in1010.8 mb 0.00 in0.0 mm 0.00 in0.0 mm 0.18 in4.6 mm
08:37 AM 66.8°F19.3°C 64.7°F18.2°C 93% 11.0 mph S17.7 kmh S 14.0 mph22.5 kmh 29.86 in1011.2 mb 0.00 in0.0 mm 0.00 in0.0 mm 0.18 in4.6 mm
08:42 AM 66.8°F19.3°C 64.4°F18.0°C 92% 6.0 mph S9.7 kmh S 14.0 mph22.5 kmh 29.85 in1010.8 mb 0.00 in0.0 mm 0.00 in0.0 mm 0.18 in4.6 mm
08:47 AM 66.8°F19.3°C 64.4°F18.0°C 92% 1.0 mph SSW1.6 kmh SSW 14.0 mph22.5 kmh 29.85 in1010.8 mb 0.00 in0.0 mm 0.00 in0.0 mm 0.18 in4.6 mm
08:52 AM 66.9°F19.4°C 64.5°F18.1°C 92% 3.0 mph SSW4.8 kmh SSW 14.0 mph22.5 kmh 29.85 in1010.8 mb 0.00 in0.0 mm 0.00 in0.0 mm 0.18 in4.6 mm
08:57 AM 66.9°F19.4°C 64.5°F18.1°C 92% 5.0 mph S8.0 kmh S 14.0 mph22.5 kmh 29.85 in1010.8 mb 0.00 in0.0 mm 0.00 in0.0 mm 0.18 in4.6 mm
09:02 AM 67.0°F19.4°C 64.6°F18.1°C 92% 2.0 mph S3.2 kmh S 12.0 mph19.3 kmh 29.84 in1010.5 mb 0.00 in0.0 mm 0.00 in0.0 mm 0.18 in4.6 mm
09:07 AM 67.0°F19.4°C 64.6°F18.1°C 92% 5.0 mph S8.0 kmh S 12.0 mph19.3 kmh 29.85 in1010.8 mb 0.00 in0.0 mm 0.00 in0.0 mm 0.18 in4.6 mm
09:12 AM 67.0°F19.4°C 64.6°F18.1°C 92% 7.0 mph S11.3 kmh S 11.0 mph17.7 kmh 29.85 in1010.8 mb 0.00 in0.0 mm 0.00 in0.0 mm 0.18 in4.6 mm
09:17 AM 67.1°F19.5°C 64.7°F18.2°C 92% 1.0 mph S1.6 kmh S 13.0 mph20.9 kmh 29.84 in1010.5 mb 0.00 in0.0 mm 0.00 in0.0 mm 0.18 in4.6 mm
09:22 AM 67.1°F19.5°C 64.7°F18.2°C 92% 2.0 mph S3.2 kmh S 13.0 mph20.9 kmh 29.84 in1010.5 mb 0.00 in0.0 mm 0.00 in0.0 mm 0.18 in4.6 mm
09:27 AM 67.2°F19.6°C 65.1°F18.4°C 93% 9.0 mph S14.5 kmh S 13.0 mph20.9 kmh 29.84 in1010.5 mb 0.00 in0.0 mm 0.00 in0.0 mm 0.18 in4.6 mm
09:32 AM 67.2°F19.6°C 65.1°F18.4°C 93% 1.0 mph S1.6 kmh S 13.0 mph20.9 kmh 29.84 in1010.5 mb 0.00 in0.0 mm 0.00 in0.0 mm 0.18 in4.6 mm
09:37 AM 67.3°F19.6°C 65.2°F18.4°C 93% 2.0 mph SSE3.2 kmh SSE 13.0 mph20.9 kmh 29.84 in1010.5 mb 0.00 in0.0 mm 0.00 in0.0 mm 0.18 in4.6 mm
09:42 AM 67.4°F19.7°C 65.3°F18.5°C 93% 4.0 mph SE6.4 kmh SE 13.0 mph20.9 kmh 29.83 in1010.2 mb 0.00 in0.0 mm 0.00 in0.0 mm 0.18 in4.6 mm
09:47 AM 67.5°F19.7°C 65.4°F18.6°C 93% 5.0 mph S8.0 kmh S 12.0 mph19.3 kmh 29.83 in1010.2 mb 0.00 in0.0 mm 0.00 in0.0 mm 0.18 in4.6 mm
09:52 AM 67.6°F19.8°C 65.5°F18.6°C 93% 5.0 mph SSW8.0 kmh SSW 12.0 mph19.3 kmh 29.83 in1010.2 mb 0.00 in0.0 mm 0.00 in0.0 mm 0.18 in4.6 mm
09:57 AM 67.6°F19.8°C 65.5°F18.6°C 93% 4.0 mph S6.4 kmh S 12.0 mph19.3 kmh 29.82 in1009.8 mb 0.00 in0.0 mm 0.00 in0.0 mm 0.18 in4.6 mm
10:02 AM 67.7°F19.8°C 65.6°F18.7°C 93% 4.0 mph SE6.4 kmh SE 13.0 mph20.9 kmh 29.82 in1009.8 mb 0.00 in0.0 mm 0.00 in0.0 mm 0.18 in4.6 mm
10:07 AM 67.8°F19.9°C 65.7°F18.7°C 93% 3.0 mph S4.8 kmh S 13.0 mph20.9 kmh 29.82 in1009.8 mb 0.00 in0.0 mm 0.00 in0.0 mm 0.18 in4.6 mm
10:12 AM 67.9°F19.9°C 65.8°F18.8°C 93% 7.0 mph S11.3 kmh S 13.0 mph20.9 kmh 29.82 in1009.8 mb 0.00 in0.0 mm 0.00 in0.0 mm 0.18 in4.6 mm
10:17 AM 68.0°F20.0°C 65.9°F18.8°C 93% Calm Calm 13.0 mph20.9 kmh 29.82 in1009.8 mb 0.00 in0.0 mm 0.00 in0.0 mm 0.18 in4.6 mm
10:22 AM 68.1°F20.1°C 66.0°F18.9°C 93% Calm Calm 13.0 mph20.9 kmh 29.82 in1009.8 mb 0.00 in0.0 mm 0.00 in0.0 mm 0.18 in4.6 mm
10:27 AM 68.2°F20.1°C 66.1°F18.9°C 93% 6.0 mph S9.7 kmh S 14.0 mph22.5 kmh 29.82 in1009.8 mb 0.00 in0.0 mm 0.00 in0.0 mm 0.18 in4.6 mm
10:32 AM 68.4°F20.2°C 66.3°F19.1°C 93% Calm Calm 14.0 mph22.5 kmh 29.82 in1009.8 mb 0.00 in0.0 mm 0.00 in0.0 mm 0.18 in4.6 mm
10:37 AM 68.5°F20.3°C 66.4°F19.1°C 93% 7.0 mph S11.3 kmh S 18.0 mph29.0 kmh 29.82 in1009.8 mb 0.00 in0.0 mm 0.00 in0.0 mm 0.18 in4.6 mm
10:42 AM 68.6°F20.3°C 66.5°F19.2°C 93% 7.0 mph SW11.3 kmh SW 18.0 mph29.0 kmh 29.82 in1009.8 mb 0.00 in0.0 mm 0.00 in0.0 mm 0.18 in4.6 mm
10:47 AM 68.7°F20.4°C 66.6°F19.2°C 93% 3.0 mph S4.8 kmh S 18.0 mph29.0 kmh 29.81 in1009.5 mb 0.00 in0.0 mm 0.00 in0.0 mm 0.18 in4.6 mm
10:52 AM 68.8°F20.4°C 66.7°F19.3°C 93% 2.0 mph S3.2 kmh S 18.0 mph29.0 kmh 29.80 in1009.1 mb 0.00 in0.0 mm 0.00 in0.0 mm 0.18 in4.6 mm
10:57 AM 68.9°F20.5°C 66.8°F19.3°C 93% 9.0 mph SSE14.5 kmh SSE 13.0 mph20.9 kmh 29.80 in1009.1 mb 0.00 in0.0 mm 0.00 in0.0 mm 0.18 in4.6 mm
11:02 AM 68.9°F20.5°C 66.8°F19.3°C 93% 6.0 mph S9.7 kmh S 17.0 mph27.4 kmh 29.80 in1009.1 mb 0.00 in0.0 mm 0.00 in0.0 mm 0.18 in4.6 mm
11:07 AM 69.0°F20.6°C 66.9°F19.4°C 93% 10.0 mph S16.1 kmh S 17.0 mph27.4 kmh 29.80 in1009.1 mb 0.00 in0.0 mm 0.00 in0.0 mm 0.19 in4.8 mm
11:12 AM 69.0°F20.6°C 66.9°F19.4°C 93% 5.0 mph SE8.0 kmh SE 17.0 mph27.4 kmh 29.80 in1009.1 mb 0.00 in0.0 mm 0.00 in0.0 mm 0.19 in4.8 mm
11:17 AM 69.1°F20.6°C 67.0°F19.4°C 93% 5.0 mph S8.0 kmh S 17.0 mph27.4 kmh 29.80 in1009.1 mb 0.00 in0.0 mm 0.00 in0.0 mm 0.19 in4.8 mm
11:22 AM 69.1°F20.6°C 67.0°F19.4°C 93% 2.0 mph S3.2 kmh S 10.0 mph16.1 kmh 29.79 in1008.8 mb 0.00 in0.0 mm 0.00 in0.0 mm 0.19 in4.8 mm
11:27 AM 69.1°F20.6°C 67.0°F19.4°C 93% 5.0 mph S8.0 kmh S 11.0 mph17.7 kmh 29.78 in1008.5 mb 0.00 in0.0 mm 0.00 in0.0 mm 0.19 in4.8 mm
11:32 AM 69.2°F20.7°C 67.1°F19.5°C 93% 3.0 mph S4.8 kmh S 18.0 mph29.0 kmh 29.78 in1008.5 mb 0.00 in0.0 mm 0.00 in0.0 mm 0.19 in4.8 mm
11:37 AM 69.3°F20.7°C 67.2°F19.6°C 93% 1.0 mph SSW1.6 kmh SSW 18.0 mph29.0 kmh 29.77 in1008.1 mb 0.00 in0.0 mm 0.00 in0.0 mm 0.20 in5.1 mm
11:42 AM 69.3°F20.7°C 67.2°F19.6°C 93% 2.0 mph SE3.2 kmh SE 18.0 mph29.0 kmh 29.78 in1008.5 mb 0.06 in1.5 mm 0.72 in18.3 mm 0.20 in5.1 mm
11:47 AM 69.4°F20.8°C 67.3°F19.6°C 93% 5.0 mph SSE8.0 kmh SSE 18.0 mph29.0 kmh 29.78 in1008.5 mb 0.06 in1.5 mm 0.00 in0.0 mm 0.21 in5.3 mm
11:52 AM 69.4°F20.8°C 67.3°F19.6°C 93% 5.0 mph S8.0 kmh S 12.0 mph19.3 kmh 29.77 in1008.1 mb 0.05 in1.3 mm 0.00 in0.0 mm 0.21 in5.3 mm
11:57 AM 69.5°F20.8°C 67.4°F19.7°C 93% 2.0 mph S3.2 kmh S 12.0 mph19.3 kmh 29.77 in1008.1 mb 0.04 in1.0 mm 0.00 in0.0 mm 0.21 in5.3 mm
12:02 PM 69.6°F20.9°C 67.5°F19.7°C 93% 7.0 mph SSW11.3 kmh SSW 13.0 mph20.9 kmh 29.77 in1008.1 mb 0.00 in0.0 mm 0.00 in0.0 mm 0.22 in5.6 mm
12:07 PM 69.6°F20.9°C 67.5°F19.7°C 93% 2.0 mph S3.2 kmh S 13.0 mph20.9 kmh 29.77 in1008.1 mb 0.00 in0.0 mm 0.00 in0.0 mm 0.22 in5.6 mm
12:12 PM 69.7°F20.9°C 67.6°F19.8°C 93% 4.0 mph S6.4 kmh S 13.0 mph20.9 kmh 29.76 in1007.8 mb 0.00 in0.0 mm 0.00 in0.0 mm 0.22 in5.6 mm
12:17 PM 69.7°F20.9°C 67.6°F19.8°C 93% 2.0 mph S3.2 kmh S 13.0 mph20.9 kmh 29.76 in1007.8 mb 0.00 in0.0 mm 0.00 in0.0 mm 0.22 in5.6 mm
12:22 PM 69.8°F21.0°C 67.7°F19.8°C 93% Calm Calm 10.0 mph16.1 kmh 29.75 in1007.5 mb 0.00 in0.0 mm 0.00 in0.0 mm 0.22 in5.6 mm
12:27 PM 69.9°F21.1°C 67.5°F19.7°C 92% Calm Calm 13.0 mph20.9 kmh 29.75 in1007.5 mb 0.00 in0.0 mm 0.00 in0.0 mm 0.22 in5.6 mm
12:32 PM 69.9°F21.1°C 67.8°F19.9°C 93% 6.0 mph SSE9.7 kmh SSE 13.0 mph20.9 kmh 29.75 in1007.5 mb 0.00 in0.0 mm 0.00 in0.0 mm 0.22 in5.6 mm
12:37 PM 69.9°F21.1°C 67.8°F19.9°C 93% 5.0 mph S8.0 kmh S 18.0 mph29.0 kmh 29.74 in1007.1 mb 0.00 in0.0 mm 0.00 in0.0 mm 0.22 in5.6 mm
12:42 PM 70.0°F21.1°C 67.9°F19.9°C 93% 7.0 mph S11.3 kmh S 18.0 mph29.0 kmh 29.73 in1006.8 mb 0.00 in0.0 mm 0.00 in0.0 mm 0.22 in5.6 mm
12:47 PM 70.1°F21.2°C 68.0°F20.0°C 93% 1.0 mph S1.6 kmh S 18.0 mph29.0 kmh 29.72 in1006.4 mb 0.00 in0.0 mm 0.00 in0.0 mm 0.22 in5.6 mm
12:52 PM 70.2°F21.2°C 68.1°F20.1°C 93% 4.0 mph SSE6.4 kmh SSE 18.0 mph29.0 kmh 29.71 in1006.1 mb 0.00 in0.0 mm 0.00 in0.0 mm 0.22 in5.6 mm
12:57 PM 70.2°F21.2°C 68.1°F20.1°C 93% 6.0 mph SE9.7 kmh SE 15.0 mph24.1 kmh 29.70 in1005.8 mb 0.00 in0.0 mm 0.00 in0.0 mm 0.22 in5.6 mm
01:02 PM 70.2°F21.2°C 68.1°F20.1°C 93% 10.0 mph S16.1 kmh S 16.0 mph25.7 kmh 29.70 in1005.8 mb 0.00 in0.0 mm 0.00 in0.0 mm 0.22 in5.6 mm
01:07 PM 70.4°F21.3°C 68.3°F20.2°C 93% 5.0 mph S8.0 kmh S 16.0 mph25.7 kmh 29.70 in1005.8 mb 0.00 in0.0 mm 0.00 in0.0 mm 0.22 in5.6 mm
01:12 PM 70.4°F21.3°C 68.3°F20.2°C 93% 1.0 mph S1.6 kmh S 16.0 mph25.7 kmh 29.70 in1005.8 mb 0.00 in0.0 mm 0.00 in0.0 mm 0.22 in5.6 mm
01:17 PM 70.5°F21.4°C 68.1°F20.1°C 92% 3.0 mph S4.8 kmh S 16.0 mph25.7 kmh 29.69 in1005.4 mb 0.00 in0.0 mm 0.00 in0.0 mm 0.22 in5.6 mm
01:22 PM 70.5°F21.4°C 68.1°F20.1°C 92% Calm Calm 12.0 mph19.3 kmh 29.69 in1005.4 mb 0.00 in0.0 mm 0.00 in0.0 mm 0.22 in5.6 mm
01:27 PM 70.7°F21.5°C 68.6°F20.3°C 93% 1.0 mph S1.6 kmh S 12.0 mph19.3 kmh 29.69 in1005.4 mb 0.00 in0.0 mm 0.00 in0.0 mm 0.22 in5.6 mm
01:32 PM 70.8°F21.6°C 68.7°F20.4°C 93% 8.0 mph S12.9 kmh S 13.0 mph20.9 kmh 29.68 in1005.1 mb 0.00 in0.0 mm 0.00 in0.0 mm 0.22 in5.6 mm
01:37 PM 71.0°F21.7°C 68.6°F20.3°C 92% 4.0 mph S6.4 kmh S 13.0 mph20.9 kmh 29.68 in1005.1 mb 0.00 in0.0 mm 0.00 in0.0 mm 0.22 in5.6 mm
01:42 PM 71.3°F21.8°C 68.8°F20.4°C 92% 7.0 mph S11.3 kmh S 14.0 mph22.5 kmh 29.67 in1004.7 mb 0.00 in0.0 mm 0.00 in0.0 mm 0.22 in5.6 mm
01:47 PM 71.6°F22.0°C 69.1°F20.6°C 92% 3.0 mph S4.8 kmh S 14.0 mph22.5 kmh 29.67 in1004.7 mb 0.00 in0.0 mm 0.00 in0.0 mm 0.22 in5.6 mm
01:52 PM 71.9°F22.2°C 69.4°F20.8°C 92% 3.0 mph S4.8 kmh S 18.0 mph29.0 kmh 29.67 in1004.7 mb 0.00 in0.0 mm 0.00 in0.0 mm 0.22 in5.6 mm
01:57 PM 72.2°F22.3°C 69.7°F20.9°C 92% 4.0 mph SSE6.4 kmh SSE 18.0 mph29.0 kmh 29.67 in1004.7 mb 0.00 in0.0 mm 0.00 in0.0 mm 0.22 in5.6 mm
02:02 PM 72.4°F22.4°C 69.9°F21.1°C 92% 2.0 mph S3.2 kmh S 18.0 mph29.0 kmh 29.67 in1004.7 mb 0.00 in0.0 mm 0.00 in0.0 mm 0.22 in5.6 mm
02:07 PM 72.5°F22.5°C 70.0°F21.1°C 92% 1.0 mph S1.6 kmh S 18.0 mph29.0 kmh 29.67 in1004.7 mb 0.00 in0.0 mm 0.00 in0.0 mm 0.22 in5.6 mm
02:12 PM 72.6°F22.6°C 70.1°F21.2°C 92% Calm Calm 14.0 mph22.5 kmh 29.67 in1004.7 mb 0.00 in0.0 mm 0.00 in0.0 mm 0.22 in5.6 mm
02:17 PM 72.8°F22.7°C 70.0°F21.1°C 91% 5.0 mph S8.0 kmh S 14.0 mph22.5 kmh 29.67 in1004.7 mb 0.00 in0.0 mm 0.00 in0.0 mm 0.22 in5.6 mm
02:22 PM 73.0°F22.8°C 70.2°F21.2°C 91% Calm Calm 13.0 mph20.9 kmh 29.66 in1004.4 mb 0.00 in0.0 mm 0.00 in0.0 mm 0.22 in5.6 mm
02:27 PM 73.3°F22.9°C 70.5°F21.4°C 91% 3.0 mph SE4.8 kmh SE 13.0 mph20.9 kmh 29.66 in1004.4 mb 0.00 in0.0 mm 0.00 in0.0 mm 0.22 in5.6 mm
02:32 PM 73.6°F23.1°C 70.8°F21.6°C 91% 10.0 mph S16.1 kmh S 13.0 mph20.9 kmh 29.66 in1004.4 mb 0.00 in0.0 mm 0.00 in0.0 mm 0.22 in5.6 mm
02:37 PM 73.8°F23.2°C 70.7°F21.5°C 90% 6.0 mph SSW9.7 kmh SSW 13.0 mph20.9 kmh 29.66 in1004.4 mb 0.00 in0.0 mm 0.00 in0.0 mm 0.22 in5.6 mm
02:42 PM 73.8°F23.2°C 70.7°F21.5°C 90% Calm Calm 13.0 mph20.9 kmh 29.65 in1004.1 mb 0.00 in0.0 mm 0.00 in0.0 mm 0.22 in5.6 mm
02:47 PM 73.9°F23.3°C 70.8°F21.6°C 90% 3.0 mph SSE4.8 kmh SSE 13.0 mph20.9 kmh 29.65 in1004.1 mb 0.00 in0.0 mm 0.00 in0.0 mm 0.22 in5.6 mm
02:52 PM 74.1°F23.4°C 71.0°F21.7°C 90% 6.0 mph S9.7 kmh S 14.0 mph22.5 kmh 29.65 in1004.1 mb 0.00 in0.0 mm 0.00 in0.0 mm 0.22 in5.6 mm
02:57 PM 74.2°F23.4°C 70.7°F21.5°C 89% 4.0 mph S6.4 kmh S 14.0 mph22.5 kmh 29.65 in1004.1 mb 0.00 in0.0 mm 0.00 in0.0 mm 0.22 in5.6 mm
03:02 PM 74.4°F23.6°C 70.9°F21.6°C 89% 8.0 mph S12.9 kmh S 14.0 mph22.5 kmh 29.65 in1004.1 mb 0.00 in0.0 mm 0.00 in0.0 mm 0.22 in5.6 mm
03:07 PM 74.5°F23.6°C 71.0°F21.7°C 89% Calm Calm 14.0 mph22.5 kmh 29.64 in1003.7 mb 0.00 in0.0 mm 0.00 in0.0 mm 0.22 in5.6 mm
03:12 PM 74.5°F23.6°C 71.0°F21.7°C 89% 4.0 mph S6.4 kmh S 13.0 mph20.9 kmh 29.64 in1003.7 mb 0.00 in0.0 mm 0.00 in0.0 mm 0.22 in5.6 mm
03:17 PM 74.7°F23.7°C 70.9°F21.6°C 88% Calm Calm 13.0 mph20.9 kmh 29.64 in1003.7 mb 0.00 in0.0 mm 0.00 in0.0 mm 0.22 in5.6 mm
03:22 PM 74.8°F23.8°C 71.0°F21.7°C 88% 4.0 mph S6.4 kmh S 13.0 mph20.9 kmh 29.64 in1003.7 mb 0.00 in0.0 mm 0.00 in0.0 mm 0.22 in5.6 mm
03:27 PM 75.0°F23.9°C 71.2°F21.8°C 88% 6.0 mph S9.7 kmh S 13.0 mph20.9 kmh 29.63 in1003.4 mb 0.00 in0.0 mm 0.00 in0.0 mm 0.22 in5.6 mm
03:32 PM 75.1°F23.9°C 71.3°F21.8°C 88% 3.0 mph S4.8 kmh S 13.0 mph20.9 kmh 29.63 in1003.4 mb 0.00 in0.0 mm 0.00 in0.0 mm 0.22 in5.6 mm
03:37 PM 75.1°F23.9°C 71.0°F21.7°C 87% 1.0 mph S1.6 kmh S 13.0 mph20.9 kmh 29.63 in1003.4 mb 0.00 in0.0 mm 0.00 in0.0 mm 0.22 in5.6 mm
03:42 PM 75.2°F24.0°C 71.1°F21.7°C 87% 4.0 mph S6.4 kmh S 12.0 mph19.3 kmh 29.62 in1003.0 mb 0.00 in0.0 mm 0.00 in0.0 mm 0.22 in5.6 mm
03:47 PM 75.3°F24.1°C 71.2°F21.8°C 87% 8.0 mph S12.9 kmh S 12.0 mph19.3 kmh 29.62 in1003.0 mb 0.00 in0.0 mm 0.00 in0.0 mm 0.22 in5.6 mm
03:52 PM 75.4°F24.1°C 70.9°F21.6°C 86% 3.0 mph S4.8 kmh S 10.0 mph16.1 kmh 29.61 in1002.7 mb 0.00 in0.0 mm 0.00 in0.0 mm 0.22 in5.6 mm
03:57 PM 75.4°F24.1°C 70.9°F21.6°C 86% 5.0 mph S8.0 kmh S 11.0 mph17.7 kmh 29.61 in1002.7 mb 0.00 in0.0 mm 0.00 in0.0 mm 0.22 in5.6 mm
04:02 PM 75.5°F24.2°C 71.0°F21.7°C 86% 4.0 mph S6.4 kmh S 13.0 mph20.9 kmh 29.61 in1002.7 mb 0.00 in0.0 mm 0.00 in0.0 mm 0.22 in5.6 mm
04:07 PM 75.5°F24.2°C 71.0°F21.7°C 86% 3.0 mph S4.8 kmh S 13.0 mph20.9 kmh 29.61 in1002.7 mb 0.00 in0.0 mm 0.00 in0.0 mm 0.22 in5.6 mm
04:12 PM 75.6°F24.2°C 71.1°F21.7°C 86% 3.0 mph SSE4.8 kmh SSE 13.0 mph20.9 kmh 29.60 in1002.4 mb 0.00 in0.0 mm 0.00 in0.0 mm 0.22 in5.6 mm
04:17 PM 75.7°F24.3°C 70.9°F21.6°C 85% 9.0 mph S14.5 kmh S 13.0 mph20.9 kmh 29.60 in1002.4 mb 0.00 in0.0 mm 0.00 in0.0 mm 0.22 in5.6 mm
04:22 PM 75.8°F24.3°C 71.0°F21.7°C 85% 7.0 mph S11.3 kmh S 13.0 mph20.9 kmh 29.59 in1002.0 mb 0.00 in0.0 mm 0.00 in0.0 mm 0.22 in5.6 mm
04:27 PM 75.9°F24.4°C 71.1°F21.7°C 85% Calm Calm 14.0 mph22.5 kmh 29.60 in1002.4 mb 0.00 in0.0 mm 0.00 in0.0 mm 0.22 in5.6 mm
04:32 PM 76.0°F24.4°C 70.8°F21.6°C 84% 4.0 mph S6.4 kmh S 17.0 mph27.4 kmh 29.59 in1002.0 mb 0.00 in0.0 mm 0.00 in0.0 mm 0.22 in5.6 mm
04:37 PM 76.0°F24.4°C 70.8°F21.6°C 84% Calm Calm 17.0 mph27.4 kmh 29.59 in1002.0 mb 0.00 in0.0 mm 0.00 in0.0 mm 0.22 in5.6 mm
04:42 PM 75.9°F24.4°C 70.7°F21.5°C 84% 2.0 mph S3.2 kmh S 17.0 mph27.4 kmh 29.59 in1002.0 mb 0.00 in0.0 mm 0.00 in0.0 mm 0.22 in5.6 mm
04:47 PM 75.8°F24.3°C 70.6°F21.4°C 84% 2.0 mph S3.2 kmh S 17.0 mph27.4 kmh 29.58 in1001.7 mb 0.00 in0.0 mm 0.00 in0.0 mm 0.22 in5.6 mm
04:52 PM 75.7°F24.3°C 70.9°F21.6°C 85% Calm Calm 11.0 mph17.7 kmh 29.58 in1001.7 mb 0.00 in0.0 mm 0.00 in0.0 mm 0.22 in5.6 mm
04:57 PM 75.7°F24.3°C 70.5°F21.4°C 84% 4.0 mph S6.4 kmh S 11.0 mph17.7 kmh 29.57 in1001.4 mb 0.00 in0.0 mm 0.00 in0.0 mm 0.22 in5.6 mm
05:02 PM 75.7°F24.3°C 70.5°F21.4°C 84% Calm Calm 10.0 mph16.1 kmh 29.58 in1001.7 mb 0.00 in0.0 mm 0.00 in0.0 mm 0.22 in5.6 mm
05:07 PM 75.8°F24.3°C 70.6°F21.4°C 84% 5.0 mph S8.0 kmh S 13.0 mph20.9 kmh 29.57 in1001.4 mb 0.00 in0.0 mm 0.00 in0.0 mm 0.22 in5.6 mm
05:12 PM 75.8°F24.3°C 70.6°F21.4°C 84% 5.0 mph S8.0 kmh S 14.0 mph22.5 kmh 29.57 in1001.4 mb 0.00 in0.0 mm 0.00 in0.0 mm 0.22 in5.6 mm
05:17 PM 75.9°F24.4°C 70.7°F21.5°C 84% Calm Calm 14.0 mph22.5 kmh 29.57 in1001.4 mb 0.00 in0.0 mm 0.00 in0.0 mm 0.22 in5.6 mm
05:22 PM 75.9°F24.4°C 70.7°F21.5°C 84% 3.0 mph SSW4.8 kmh SSW 14.0 mph22.5 kmh 29.57 in1001.4 mb 0.00 in0.0 mm 0.00 in0.0 mm 0.22 in5.6 mm
05:27 PM 75.8°F24.3°C 70.6°F21.4°C 84% Calm Calm 14.0 mph22.5 kmh 29.56 in1001.0 mb 0.00 in0.0 mm 0.00 in0.0 mm 0.22 in5.6 mm
05:32 PM 75.9°F24.4°C 70.7°F21.5°C 84% 3.0 mph S4.8 kmh S 13.0 mph20.9 kmh 29.56 in1001.0 mb 0.00 in0.0 mm 0.00 in0.0 mm 0.22 in5.6 mm
05:37 PM 75.9°F24.4°C 70.7°F21.5°C 84% 4.0 mph S6.4 kmh S 13.0 mph20.9 kmh 29.56 in1001.0 mb 0.00 in0.0 mm 0.00 in0.0 mm 0.22 in5.6 mm
05:42 PM 75.9°F24.4°C 70.7°F21.5°C 84% 2.0 mph S3.2 kmh S 12.0 mph19.3 kmh 29.55 in1000.7 mb 0.00 in0.0 mm 0.00 in0.0 mm 0.22 in5.6 mm
05:47 PM 76.0°F24.4°C 70.4°F21.3°C 83% 5.0 mph SE8.0 kmh SE 13.0 mph20.9 kmh 29.55 in1000.7 mb 0.00 in0.0 mm 0.00 in0.0 mm 0.22 in5.6 mm
05:52 PM 76.1°F24.5°C 70.5°F21.4°C 83% 4.0 mph S6.4 kmh S 13.0 mph20.9 kmh 29.55 in1000.7 mb 0.00 in0.0 mm 0.00 in0.0 mm 0.22 in5.6 mm
05:57 PM 76.1°F24.5°C 70.5°F21.4°C 83% 6.0 mph S9.7 kmh S 14.0 mph22.5 kmh 29.55 in1000.7 mb 0.00 in0.0 mm 0.00 in0.0 mm 0.22 in5.6 mm
06:02 PM 76.1°F24.5°C 70.5°F21.4°C 83% Calm Calm 14.0 mph22.5 kmh 29.54 in1000.3 mb 0.00 in0.0 mm 0.00 in0.0 mm 0.22 in5.6 mm
06:07 PM 76.2°F24.6°C 70.6°F21.4°C 83% 9.0 mph S14.5 kmh S 14.0 mph22.5 kmh 29.54 in1000.3 mb 0.00 in0.0 mm 0.00 in0.0 mm 0.22 in5.6 mm
06:12 PM 76.2°F24.6°C 70.6°F21.4°C 83% 5.0 mph S8.0 kmh S 14.0 mph22.5 kmh 29.53 in1000.0 mb 0.00 in0.0 mm 0.00 in0.0 mm 0.22 in5.6 mm
06:17 PM 76.2°F24.6°C 70.6°F21.4°C 83% 2.0 mph SSW3.2 kmh SSW 14.0 mph22.5 kmh 29.53 in1000.0 mb 0.00 in0.0 mm 0.00 in0.0 mm 0.22 in5.6 mm
06:22 PM 76.2°F24.6°C 70.3°F21.3°C 82% Calm Calm 14.0 mph22.5 kmh 29.52 in999.7 mb 0.00 in0.0 mm 0.00 in0.0 mm 0.22 in5.6 mm
06:27 PM 76.2°F24.6°C 70.3°F21.3°C 82% 9.0 mph SE14.5 kmh SE 14.0 mph22.5 kmh 29.52 in999.7 mb 0.00 in0.0 mm 0.00 in0.0 mm 0.22 in5.6 mm
06:32 PM 76.2°F24.6°C 70.3°F21.3°C 82% 5.0 mph S8.0 kmh S 18.0 mph29.0 kmh 29.52 in999.7 mb 0.00 in0.0 mm 0.00 in0.0 mm 0.22 in5.6 mm
06:37 PM 76.2°F24.6°C 70.3°F21.3°C 82% 6.0 mph SE9.7 kmh SE 18.0 mph29.0 kmh 29.51 in999.3 mb 0.00 in0.0 mm 0.00 in0.0 mm 0.22 in5.6 mm
06:42 PM 76.1°F24.5°C 70.5°F21.4°C 83% 9.0 mph S14.5 kmh S 19.0 mph30.6 kmh 29.51 in999.3 mb 0.00 in0.0 mm 0.00 in0.0 mm 0.22 in5.6 mm
06:47 PM 76.1°F24.5°C 70.5°F21.4°C 83% 7.0 mph SSW11.3 kmh SSW 19.0 mph30.6 kmh 29.51 in999.3 mb 0.00 in0.0 mm 0.00 in0.0 mm 0.22 in5.6 mm
06:52 PM 76.1°F24.5°C 70.5°F21.4°C 83% Calm Calm 19.0 mph30.6 kmh 29.51 in999.3 mb 0.00 in0.0 mm 0.00 in0.0 mm 0.22 in5.6 mm
06:57 PM 76.1°F24.5°C 70.2°F21.2°C 82% Calm Calm 21.0 mph33.8 kmh 29.50 in999.0 mb 0.00 in0.0 mm 0.00 in0.0 mm 0.22 in5.6 mm
07:02 PM 76.2°F24.6°C 70.3°F21.3°C 82% 4.0 mph S6.4 kmh S 21.0 mph33.8 kmh 29.50 in999.0 mb 0.00 in0.0 mm 0.00 in0.0 mm 0.22 in5.6 mm
07:07 PM 76.4°F24.7°C 70.5°F21.4°C 82% 7.0 mph SSW11.3 kmh SSW 21.0 mph33.8 kmh 29.49 in998.6 mb 0.00 in0.0 mm 0.00 in0.0 mm 0.22 in5.6 mm
07:12 PM 76.5°F24.7°C 70.6°F21.4°C 82% 1.0 mph S1.6 kmh S 21.0 mph33.8 kmh 29.48 in998.3 mb 0.00 in0.0 mm 0.00 in0.0 mm 0.22 in5.6 mm
07:17 PM 76.6°F24.8°C 70.3°F21.3°C 81% 8.0 mph ESE12.9 kmh ESE 21.0 mph33.8 kmh 29.48 in998.3 mb 0.00 in0.0 mm 0.00 in0.0 mm 0.22 in5.6 mm
07:22 PM 76.7°F24.8°C 70.4°F21.3°C 81% 10.0 mph S16.1 kmh S 21.0 mph33.8 kmh 29.48 in998.3 mb 0.00 in0.0 mm 0.00 in0.0 mm 0.22 in5.6 mm
07:27 PM 76.8°F24.9°C 70.1°F21.2°C 80% 3.0 mph ENE4.8 kmh ENE 19.0 mph30.6 kmh 29.48 in998.3 mb 0.00 in0.0 mm 0.00 in0.0 mm 0.22 in5.6 mm
07:32 PM 76.9°F24.9°C 70.2°F21.2°C 80% 5.0 mph SW8.0 kmh SW 26.0 mph41.8 kmh 29.48 in998.3 mb 0.00 in0.0 mm 0.00 in0.0 mm 0.22 in5.6 mm
07:37 PM 77.1°F25.1°C 70.4°F21.3°C 80% 8.0 mph S12.9 kmh S 26.0 mph41.8 kmh 29.48 in998.3 mb 0.00 in0.0 mm 0.00 in0.0 mm 0.22 in5.6 mm
07:42 PM 76.9°F24.9°C 70.6°F21.4°C 81% 7.0 mph SE11.3 kmh SE 26.0 mph41.8 kmh 29.48 in998.3 mb 0.00 in0.0 mm 0.00 in0.0 mm 0.22 in5.6 mm
07:47 PM 76.4°F24.7°C 70.5°F21.4°C 82% 8.0 mph SSW12.9 kmh SSW 26.0 mph41.8 kmh 29.49 in998.6 mb 0.00 in0.0 mm 0.00 in0.0 mm 0.22 in5.6 mm
07:52 PM 76.2°F24.6°C 70.6°F21.4°C 83% 13.0 mph S20.9 kmh S 25.0 mph40.2 kmh 29.49 in998.6 mb 0.00 in0.0 mm 0.00 in0.0 mm 0.23 in5.8 mm
07:57 PM 76.0°F24.4°C 70.4°F21.3°C 83% 7.0 mph S11.3 kmh S 25.0 mph40.2 kmh 29.48 in998.3 mb 0.00 in0.0 mm 0.00 in0.0 mm 0.23 in5.8 mm
08:02 PM 75.7°F24.3°C 70.5°F21.4°C 84% 7.0 mph S11.3 kmh S 21.0 mph33.8 kmh 29.48 in998.3 mb 0.00 in0.0 mm 0.00 in0.0 mm 0.23 in5.8 mm
08:07 PM 75.4°F24.1°C 70.6°F21.4°C 85% 1.0 mph SE1.6 kmh SE 21.0 mph33.8 kmh 29.47 in998.0 mb 0.00 in0.0 mm 0.00 in0.0 mm 0.23 in5.8 mm
08:12 PM 75.1°F23.9°C 70.3°F21.3°C 85% Calm Calm 15.0 mph24.1 kmh 29.47 in998.0 mb 0.00 in0.0 mm 0.00 in0.0 mm 0.24 in6.1 mm
08:17 PM 74.7°F23.7°C 70.6°F21.4°C 87% 2.0 mph S3.2 kmh S 15.0 mph24.1 kmh 29.48 in998.3 mb 0.08 in2.0 mm 0.96 in24.4 mm 0.25 in6.4 mm
08:22 PM 74.3°F23.5°C 70.5°F21.4°C 88% 14.0 mph SSW22.5 kmh SSW 17.0 mph27.4 kmh 29.47 in998.0 mb 0.08 in2.0 mm 0.00 in0.0 mm 0.25 in6.4 mm
08:27 PM 73.9°F23.3°C 70.1°F21.2°C 88% 5.0 mph S8.0 kmh S 22.0 mph35.4 kmh 29.48 in998.3 mb 0.15 in3.8 mm 0.84 in21.3 mm 0.27 in6.9 mm
08:32 PM 73.7°F23.2°C 70.2°F21.2°C 89% 6.0 mph S9.7 kmh S 24.0 mph38.6 kmh 29.51 in999.3 mb 0.07 in1.8 mm 0.00 in0.0 mm 0.27 in6.9 mm
08:37 PM 73.3°F22.9°C 70.2°F21.2°C 90% 7.0 mph S11.3 kmh S 24.0 mph38.6 kmh 29.52 in999.7 mb 0.66 in16.8 mm 7.08 in179.8 mm 0.30 in7.6 mm
08:42 PM 72.7°F22.6°C 69.9°F21.1°C 91% 4.0 mph WSW6.4 kmh WSW 24.0 mph38.6 kmh 29.52 in999.7 mb 0.27 in6.9 mm 0.00 in0.0 mm 0.36 in9.1 mm
08:47 PM 72.3°F22.4°C 69.5°F20.8°C 91% Calm Calm 24.0 mph38.6 kmh 29.52 in999.7 mb 0.79 in20.1 mm 6.24 in158.5 mm 0.38 in9.7 mm
08:52 PM 72.0°F22.2°C 69.5°F20.8°C 92% 3.0 mph S4.8 kmh S 14.0 mph22.5 kmh 29.52 in999.7 mb 0.15 in3.8 mm 0.00 in0.0 mm 0.44 in11.2 mm
08:57 PM 71.8°F22.1°C 69.3°F20.7°C 92% 3.0 mph SW4.8 kmh SW 14.0 mph22.5 kmh 29.52 in999.7 mb 0.07 in1.8 mm 0.00 in0.0 mm 0.44 in11.2 mm
09:02 PM 71.7°F22.1°C 69.2°F20.7°C 92% Calm Calm 10.0 mph16.1 kmh 29.52 in999.7 mb 0.04 in1.0 mm 0.00 in0.0 mm 0.44 in11.2 mm
09:07 PM 71.7°F22.1°C 69.2°F20.7°C 92% Calm Calm 3.0 mph4.8 kmh 29.53 in1000.0 mb 0.00 in0.0 mm 0.00 in0.0 mm 0.44 in11.2 mm
09:12 PM 71.7°F22.1°C 69.2°F20.7°C 92% 3.0 mph NNE4.8 kmh NNE 6.0 mph9.7 kmh 29.56 in1001.0 mb 0.00 in0.0 mm 0.00 in0.0 mm 0.44 in11.2 mm
09:17 PM 64.9°F18.3°C 60.6°F15.9°C 86% 7.0 mph NNW11.3 kmh NNW 18.0 mph29.0 kmh 29.57 in1001.4 mb 1.60 in40.6 mm 19.20 in487.7 mm 0.45 in11.4 mm
09:22 PM 60.9°F16.1°C 57.9°F14.4°C 90% 17.0 mph N27.4 kmh N 18.0 mph29.0 kmh 29.57 in1001.4 mb 3.29 in83.6 mm 20.28 in515.1 mm 0.62 in15.7 mm
09:27 PM 59.1°F15.1°C 56.5°F13.6°C 91% 2.0 mph WSW3.2 kmh WSW 21.0 mph33.8 kmh 29.58 in1001.7 mb 0.25 in6.4 mm 0.00 in0.0 mm 0.84 in21.3 mm
09:32 PM 58.6°F14.8°C 56.3°F13.5°C 92% 13.0 mph NW20.9 kmh NW 21.0 mph33.8 kmh 29.59 in1002.0 mb 0.14 in3.6 mm 0.00 in0.0 mm 0.85 in21.6 mm
09:37 PM 58.3°F14.6°C 56.0°F13.3°C 92% 1.0 mph NW1.6 kmh NW 21.0 mph33.8 kmh 29.63 in1003.4 mb 0.10 in2.5 mm 0.00 in0.0 mm 0.86 in21.8 mm
09:42 PM 58.0°F14.4°C 55.7°F13.2°C 92% 1.0 mph W1.6 kmh W 21.0 mph33.8 kmh 29.61 in1002.7 mb 0.05 in1.3 mm 0.00 in0.0 mm 0.86 in21.8 mm
09:47 PM 57.5°F14.2°C 55.2°F12.9°C 92% 3.0 mph N4.8 kmh N 18.0 mph29.0 kmh 29.63 in1003.4 mb 0.04 in1.0 mm 0.00 in0.0 mm 0.86 in21.8 mm
09:52 PM 57.0°F13.9°C 54.7°F12.6°C 92% 3.0 mph NW4.8 kmh NW 18.0 mph29.0 kmh 29.63 in1003.4 mb 0.00 in0.0 mm 0.00 in0.0 mm 0.86 in21.8 mm
09:57 PM 56.5°F13.6°C 54.2°F12.3°C 92% 2.0 mph W3.2 kmh W 27.0 mph43.5 kmh 29.63 in1003.4 mb 0.00 in0.0 mm 0.00 in0.0 mm 0.86 in21.8 mm
10:02 PM 56.4°F13.6°C 53.8°F12.1°C 91% 4.0 mph W6.4 kmh W 27.0 mph43.5 kmh 29.66 in1004.4 mb 0.00 in0.0 mm 0.00 in0.0 mm 0.86 in21.8 mm
10:07 PM 56.1°F13.4°C 53.5°F11.9°C 91% 5.0 mph NW8.0 kmh NW 27.0 mph43.5 kmh 29.66 in1004.4 mb 0.14 in3.6 mm 1.68 in42.7 mm 0.88 in22.4 mm
10:12 PM 55.9°F13.3°C 53.3°F11.8°C 91% 1.0 mph WNW1.6 kmh WNW 27.0 mph43.5 kmh 29.66 in1004.4 mb 0.13 in3.3 mm 0.00 in0.0 mm 0.89 in22.6 mm
10:17 PM 55.6°F13.1°C 53.0°F11.7°C 91% 1.0 mph WNW1.6 kmh WNW 13.0 mph20.9 kmh 29.67 in1004.7 mb 0.06 in1.5 mm 0.00 in0.0 mm 0.89 in22.6 mm
10:22 PM 55.6°F13.1°C 52.7°F11.5°C 90% 6.0 mph WNW9.7 kmh WNW 21.0 mph33.8 kmh 29.68 in1005.1 mb 0.04 in1.0 mm 0.00 in0.0 mm 0.89 in22.6 mm
10:27 PM 55.6°F13.1°C 51.5°F10.8°C 86% 11.0 mph NW17.7 kmh NW 21.0 mph33.8 kmh 29.69 in1005.4 mb 0.00 in0.0 mm 0.00 in0.0 mm 0.89 in22.6 mm
10:32 PM 55.5°F13.1°C 50.4°F10.2°C 83% Calm Calm 21.0 mph33.8 kmh 29.68 in1005.1 mb 0.00 in0.0 mm 0.00 in0.0 mm 0.89 in22.6 mm
10:37 PM 55.5°F13.1°C 50.7°F10.4°C 84% Calm Calm 21.0 mph33.8 kmh 29.72 in1006.4 mb 0.00 in0.0 mm 0.00 in0.0 mm 0.89 in22.6 mm
10:42 PM 54.8°F12.7°C 50.4°F10.2°C 85% 3.0 mph NW4.8 kmh NW 20.0 mph32.2 kmh 29.72 in1006.4 mb 0.00 in0.0 mm 0.00 in0.0 mm 0.89 in22.6 mm
10:47 PM 53.1°F11.7°C 48.7°F9.3°C 85% 10.0 mph NW16.1 kmh NW 20.0 mph32.2 kmh 29.73 in1006.8 mb 0.00 in0.0 mm 0.00 in0.0 mm 0.90 in22.9 mm
10:52 PM 51.9°F11.1°C 47.8°F8.8°C 86% 7.0 mph NNW11.3 kmh NNW 20.0 mph32.2 kmh 29.73 in1006.8 mb 0.00 in0.0 mm 0.00 in0.0 mm 0.90 in22.9 mm
10:57 PM 51.2°F10.7°C 47.2°F8.4°C 86% 4.0 mph NNW6.4 kmh NNW 20.0 mph32.2 kmh 29.74 in1007.1 mb 0.04 in1.0 mm 0.48 in12.2 mm 0.91 in23.1 mm
11:02 PM 51.0°F10.6°C 46.7°F8.2°C 85% 2.0 mph NNW3.2 kmh NNW 16.0 mph25.7 kmh 29.74 in1007.1 mb 0.04 in1.0 mm 0.00 in0.0 mm 5.44 in138.2 mm
11:07 PM 50.9°F10.5°C 46.2°F7.9°C 84% Calm Calm 16.0 mph25.7 kmh 29.75 in1007.5 mb 0.04 in1.0 mm 0.00 in0.0 mm 5.44 in138.2 mm
11:12 PM 50.8°F10.4°C 46.5°F8.1°C 85% 2.0 mph NNW3.2 kmh NNW 13.0 mph20.9 kmh 29.75 in1007.5 mb 0.00 in0.0 mm 0.00 in0.0 mm 5.44 in138.2 mm
11:17 PM 50.7°F10.4°C 46.0°F7.8°C 84% 1.0 mph NNW1.6 kmh NNW 13.0 mph20.9 kmh 29.76 in1007.8 mb 0.00 in0.0 mm 0.00 in0.0 mm 5.44 in138.2 mm
11:22 PM 50.7°F10.4°C 46.0°F7.8°C 84% Calm Calm 13.0 mph20.9 kmh 29.76 in1007.8 mb 0.00 in0.0 mm 0.00 in0.0 mm 5.44 in138.2 mm
11:27 PM 50.5°F10.3°C 45.5°F7.5°C 83% 3.0 mph N4.8 kmh N 13.0 mph20.9 kmh 29.77 in1008.1 mb 0.00 in0.0 mm 0.00 in0.0 mm 5.44 in138.2 mm
11:32 PM 50.6°F10.3°C 45.3°F7.4°C 82% 2.0 mph NW3.2 kmh NW 10.0 mph16.1 kmh 29.77 in1008.1 mb 0.00 in0.0 mm 0.00 in0.0 mm 5.44 in138.2 mm
11:37 PM 50.8°F10.4°C 44.5°F6.9°C 79% 13.0 mph NW20.9 kmh NW 15.0 mph24.1 kmh 29.76 in1007.8 mb 0.00 in0.0 mm 0.00 in0.0 mm 5.44 in138.2 mm
11:42 PM 51.1°F10.6°C 43.8°F6.6°C 76% 2.0 mph NNW3.2 kmh NNW 15.0 mph24.1 kmh 29.77 in1008.1 mb 0.00 in0.0 mm 0.00 in0.0 mm 5.44 in138.2 mm
11:47 PM 51.3°F10.7°C 40.7°F4.8°C 67% Calm Calm 15.0 mph24.1 kmh 29.77 in1008.1 mb 0.00 in0.0 mm 0.00 in0.0 mm 5.44 in138.2 mm
11:52 PM 51.9°F11.1°C 38.0°F3.3°C 59% 4.0 mph NW6.4 kmh NW 22.0 mph35.4 kmh 29.78 in1008.5 mb 0.00 in0.0 mm 0.00 in0.0 mm 5.44 in138.2 mm
11:57 PM 51.9°F11.1°C 38.5°F3.6°C 60% 3.0 mph NW4.8 kmh NW 22.0 mph35.4 kmh 29.79 in1008.8 mb 0.00 in0.0 mm 0.00 in0.0 mm 5.44 in138.2 mm